createdAt,value
2018-09-26T00:00:27.490Z,71.20
2018-09-26T00:02:59.925Z,72.90
2018-09-26T00:05:28.614Z,72.30
2018-09-26T00:07:57.405Z,71.40
2018-09-26T00:10:26.134Z,71.90
2018-09-26T00:12:54.812Z,71.90
2018-09-26T00:15:23.703Z,72.30
2018-09-26T00:17:52.347Z,72.40
2018-09-26T00:20:21.003Z,72.60
2018-09-26T00:22:49.627Z,71.40
2018-09-26T00:25:18.468Z,71.30
2018-09-26T00:27:47.538Z,71.90
2018-09-26T00:30:16.340Z,71.50
2018-09-26T00:32:44.954Z,71.70
2018-09-26T00:35:14.038Z,71.50
2018-09-26T00:37:43.646Z,70.60
2018-09-26T00:40:12.448Z,70.50
2018-09-26T00:42:41.059Z,69.80
2018-09-26T00:45:09.767Z,71.20
2018-09-26T00:47:38.608Z,69.70
2018-09-26T00:50:07.283Z,69.60
2018-09-26T00:52:35.973Z,69.80
2018-09-26T00:55:05.514Z,70.40
2018-09-26T00:57:34.278Z,70.50
2018-09-26T01:00:03.414Z,70.80
2018-09-26T01:02:32.164Z,70.50
2018-09-26T01:05:01.540Z,70.80
2018-09-26T01:07:30.213Z,70.10
2018-09-26T01:09:59.067Z,70.20
2018-09-26T01:12:27.834Z,69.00
2018-09-26T01:14:57.498Z,70.10
2018-09-26T01:17:26.185Z,69.90
2018-09-26T01:19:54.777Z,69.90
2018-09-26T01:22:23.375Z,69.80
2018-09-26T01:24:52.118Z,70.20
2018-09-26T01:27:21.696Z,70.00
2018-09-26T01:29:50.721Z,70.30
2018-09-26T01:32:19.388Z,70.50
2018-09-26T01:34:50.080Z,70.60
2018-09-26T01:37:18.740Z,70.00
2018-09-26T01:39:47.439Z,70.00
2018-09-26T01:42:16.149Z,70.00
2018-09-26T01:44:44.731Z,70.10
2018-09-26T01:47:13.681Z,70.40
2018-09-26T01:49:43.393Z,70.60
2018-09-26T01:52:12.357Z,70.50
2018-09-26T01:54:40.983Z,71.00
2018-09-26T01:57:09.672Z,71.20
2018-09-26T01:59:38.318Z,71.50
2018-09-26T02:02:07.370Z,70.60
2018-09-26T02:04:36.076Z,71.10
2018-09-26T02:07:04.968Z,72.10
2018-09-26T02:09:33.631Z,71.60
2018-09-26T02:12:02.273Z,70.80
2018-09-26T02:14:30.930Z,71.00
2018-09-26T02:17:00.650Z,70.90
2018-09-26T02:19:29.244Z,72.20
2018-09-26T02:21:58.730Z,71.40
2018-09-26T02:24:27.378Z,71.20
2018-09-26T02:26:56.249Z,71.60
2018-09-26T02:29:25.079Z,71.20
2018-09-26T02:32:03.510Z,71.90
2018-09-26T02:34:32.406Z,71.70
2018-09-26T02:37:01.230Z,73.30
2018-09-26T02:39:29.940Z,71.70
2018-09-26T02:41:58.626Z,72.10
2018-09-26T02:44:28.206Z,72.00
2018-09-26T02:46:57.016Z,72.40
2018-09-26T02:49:25.753Z,73.20
2018-09-26T02:51:54.360Z,73.00
2018-09-26T02:54:23.158Z,72.90
2018-09-26T02:56:52.146Z,73.00
2018-09-26T02:59:20.869Z,72.80
2018-09-26T03:01:49.609Z,72.80
2018-09-26T03:04:18.287Z,72.70
2018-09-26T03:06:46.668Z,72.40
2018-09-26T03:09:16.196Z,71.90
2018-09-26T03:11:44.863Z,72.50
2018-09-26T03:14:13.633Z,72.50
2018-09-26T03:16:42.485Z,71.20
2018-09-26T03:19:12.302Z,71.90
2018-09-26T03:21:40.647Z,72.10
2018-09-26T03:24:09.285Z,71.90
2018-09-26T03:26:38.631Z,71.70
2018-09-26T03:29:07.456Z,72.00
2018-09-26T03:31:36.503Z,72.30
2018-09-26T03:34:05.176Z,71.20
2018-09-26T03:36:34.062Z,70.90
2018-09-26T03:39:03.332Z,71.20
2018-09-26T03:41:32.170Z,71.90
2018-09-26T03:44:00.920Z,71.10
2018-09-26T03:46:29.895Z,71.00
2018-09-26T03:48:58.682Z,71.00
2018-09-26T03:51:27.372Z,71.50
2018-09-26T03:53:56.053Z,71.50
2018-09-26T03:56:24.760Z,71.70
2018-09-26T03:58:53.443Z,71.80
2018-09-26T04:01:22.421Z,72.00
2018-09-26T04:03:51.301Z,71.50
2018-09-26T04:06:19.906Z,71.20
2018-09-26T04:08:48.627Z,71.20
2018-09-26T04:11:17.263Z,71.80
2018-09-26T04:13:46.004Z,72.00
2018-09-26T04:16:14.814Z,72.50
2018-09-26T04:18:43.726Z,72.60
2018-09-26T04:21:12.026Z,71.80
2018-09-26T04:23:40.687Z,72.40
2018-09-26T04:26:09.403Z,72.30
2018-09-26T04:28:38.087Z,71.60
2018-09-26T04:31:07.129Z,71.40
2018-09-26T04:33:36.122Z,71.30
2018-09-26T04:36:08.416Z,70.90
2018-09-26T04:38:37.167Z,70.30
2018-09-26T04:41:06.533Z,70.60
2018-09-26T04:43:45.398Z,70.50
2018-09-26T04:46:15.776Z,70.50
2018-09-26T04:48:44.764Z,71.10
2018-09-26T04:51:13.716Z,71.10
2018-09-26T04:53:43.704Z,70.60
2018-09-26T04:56:12.851Z,71.30
2018-09-26T04:58:41.578Z,71.40
2018-09-26T05:01:10.281Z,70.50
2018-09-26T05:03:39.007Z,71.10
2018-09-26T05:06:09.299Z,71.10
2018-09-26T05:08:42.829Z,71.50
2018-09-26T05:11:12.997Z,71.40
2018-09-26T05:13:42.613Z,72.20
2018-09-26T05:16:12.931Z,71.80
2018-09-26T05:18:41.638Z,71.90
2018-09-26T05:21:11.174Z,71.80
2018-09-26T05:23:40.277Z,71.80
2018-09-26T05:26:10.286Z,71.90
2018-09-26T05:28:39.222Z,72.00
2018-09-26T05:31:08.386Z,72.20
2018-09-26T05:33:37.136Z,71.70
2018-09-26T05:36:05.645Z,72.10
2018-09-26T05:38:34.323Z,71.40
2018-09-26T05:41:03.860Z,71.50
2018-09-26T05:43:32.586Z,70.80
2018-09-26T05:46:01.449Z,70.60
2018-09-26T05:48:30.230Z,70.90
2018-09-26T05:51:00.465Z,71.10
2018-09-26T05:53:29.529Z,71.10
2018-09-26T05:55:58.283Z,71.00
2018-09-26T05:58:27.233Z,70.70
2018-09-26T06:00:56.094Z,70.50
2018-09-26T06:03:24.885Z,70.90
2018-09-26T06:05:53.747Z,71.00
2018-09-26T06:08:22.667Z,70.10
2018-09-26T06:10:52.491Z,70.30
2018-09-26T06:13:21.436Z,70.00
2018-09-26T06:15:50.497Z,70.30
2018-09-26T06:18:19.317Z,69.40
2018-09-26T06:20:48.415Z,69.40
2018-09-26T06:23:17.273Z,67.80
2018-09-26T06:28:19.908Z,67.20
2018-09-26T06:31:01.122Z,67.30
2018-09-26T06:33:30.120Z,68.30
2018-09-26T06:35:59.302Z,67.70
2018-09-26T06:38:28.108Z,66.50
2018-09-26T06:41:18.114Z,66.30
2018-09-26T06:46:35.503Z,64.60
2018-09-26T06:49:41.834Z,64.80
2018-09-26T06:55:34.738Z,63.20
2018-09-26T06:58:08.477Z,63.80
2018-09-26T07:00:49.407Z,62.40
2018-09-26T09:36:23.607Z,43.50
2018-09-26T09:39:29.628Z,40.30
2018-09-26T09:54:20.097Z,36.50
2018-09-26T09:57:02.673Z,33.10
2018-09-26T09:59:46.967Z,36.20
2018-09-26T10:02:27.443Z,32.70
2018-09-26T10:09:05.105Z,33.70
2018-09-26T10:12:07.098Z,33.30
2018-09-26T10:30:24.003Z,33.00
2018-09-26T10:39:39.378Z,32.30
2018-09-26T11:17:03.487Z,31.20
2018-09-26T11:19:32.323Z,29.10
2018-09-26T11:22:01.294Z,29.20
2018-09-26T11:24:30.057Z,30.00
2018-09-26T11:26:58.851Z,30.10
2018-09-26T11:29:28.092Z,30.00
2018-09-26T11:31:56.812Z,28.90
2018-09-26T11:34:25.754Z,28.70
2018-09-26T11:36:54.613Z,29.10
2018-09-26T11:39:29.349Z,28.10
2018-09-26T11:42:01.016Z,30.20
2018-09-26T11:45:14.648Z,28.10
2018-09-26T11:47:46.361Z,29.50
2018-09-26T11:50:16.345Z,27.20
2018-09-26T11:52:45.376Z,27.40
2018-09-26T11:58:41.143Z,27.10
2018-09-26T12:17:31.774Z,28.30
2018-09-26T12:20:01.533Z,27.60
2018-09-26T12:22:30.827Z,28.80
2018-09-26T12:24:59.930Z,27.50
2018-09-26T12:27:35.404Z,28.10
2018-09-26T12:30:31.942Z,27.10
2018-09-26T12:33:02.294Z,28.60
2018-09-26T12:38:44.707Z,28.00
2018-09-26T12:41:22.247Z,27.90
2018-09-26T12:44:02.543Z,25.20
2018-09-26T12:46:33.864Z,27.20
2018-09-26T12:51:56.452Z,26.80
2018-09-26T12:54:25.168Z,28.20
2018-09-26T12:56:57.266Z,27.70
2018-09-26T12:59:30.912Z,27.30
2018-09-26T13:01:59.970Z,28.50
2018-09-26T13:07:42.967Z,26.40
2018-09-26T13:10:23.815Z,27.20
2018-09-26T13:13:02.629Z,26.50
2018-09-26T13:15:31.434Z,27.80
2018-09-26T13:18:00.268Z,26.50
2018-09-26T13:20:28.994Z,24.90
2018-09-26T13:23:07.068Z,26.50
2018-09-26T13:25:57.899Z,26.30
2018-09-26T13:28:40.601Z,26.00
2018-09-26T13:31:15.088Z,26.30
2018-09-26T13:34:10.915Z,26.10
2018-09-26T13:37:00.923Z,26.50
2018-09-26T13:39:30.971Z,25.80
2018-09-26T13:42:18.520Z,25.80
2018-09-26T13:49:45.470Z,25.90
2018-09-26T13:52:46.337Z,27.20
2018-09-26T13:55:58.438Z,26.30
2018-09-26T13:58:45.362Z,25.30
2018-09-26T14:17:28.607Z,26.40
2018-09-26T14:20:34.595Z,26.70
2018-09-26T14:23:10.501Z,25.30
2018-09-26T14:25:50.235Z,25.60
2018-09-26T14:52:14.391Z,25.90
2018-09-26T14:55:08.688Z,25.90
2018-09-26T14:57:38.333Z,24.80
2018-09-26T15:01:01.603Z,25.00
2018-09-26T15:03:31.246Z,24.90
2018-09-26T15:06:39.411Z,27.10
2018-09-26T15:09:08.468Z,25.80
2018-09-26T15:11:39.002Z,25.70
2018-09-26T15:14:09.566Z,25.30
2018-09-26T15:16:38.139Z,25.50
2018-09-26T15:19:34.969Z,26.60
2018-09-26T15:22:51.017Z,26.40
2018-09-26T15:25:19.977Z,25.50
2018-09-26T15:28:34.255Z,26.30
2018-09-26T15:31:02.922Z,26.30
2018-09-26T15:33:31.489Z,26.80
2018-09-26T15:36:00.105Z,27.00
2018-09-26T15:38:28.653Z,27.20
2018-09-26T15:40:57.288Z,27.90
2018-09-26T15:43:25.938Z,27.60
2018-09-26T15:45:55.588Z,28.00
2018-09-26T15:48:24.985Z,27.50
2018-09-26T15:50:53.626Z,27.80
2018-09-26T15:53:22.520Z,27.30
2018-09-26T15:55:51.199Z,27.70
2018-09-26T15:58:19.798Z,28.20
2018-09-26T16:00:48.563Z,28.60
2018-09-26T16:03:17.221Z,28.90
2018-09-26T16:05:45.855Z,30.00
2018-09-26T16:08:14.693Z,29.40
2018-09-26T16:10:43.523Z,29.30
2018-09-26T16:13:13.135Z,29.20
2018-09-26T16:15:41.817Z,29.30
2018-09-26T16:18:10.582Z,29.70
2018-09-26T16:20:39.063Z,30.20
2018-09-26T16:23:08.047Z,30.00
2018-09-26T16:25:36.709Z,29.90
2018-09-26T16:28:05.234Z,30.60
2018-09-26T16:30:33.795Z,31.40
2018-09-26T16:33:02.451Z,31.30
2018-09-26T16:35:31.098Z,32.40
2018-09-26T16:37:59.709Z,32.70
2018-09-26T16:40:28.345Z,32.40
2018-09-26T16:42:57.011Z,33.10
2018-09-26T16:45:26.109Z,33.10
2018-09-26T16:47:54.838Z,33.10
2018-09-26T16:50:23.715Z,33.80
2018-09-26T16:52:52.576Z,33.30
2018-09-26T16:55:21.550Z,34.30
2018-09-26T16:57:50.177Z,34.20
2018-09-26T17:00:18.783Z,34.00
2018-09-26T17:02:47.349Z,34.90
2018-09-26T17:05:15.919Z,33.90
2018-09-26T17:07:44.634Z,34.90
2018-09-26T17:10:13.315Z,34.70
2018-09-26T17:12:41.898Z,34.90
2018-09-26T17:15:10.912Z,35.20
2018-09-26T17:17:39.444Z,35.50
2018-09-26T17:20:08.409Z,36.00
2018-09-26T17:22:36.958Z,36.30
2018-09-26T17:25:05.865Z,37.10
2018-09-26T17:27:34.694Z,37.90
2018-09-26T17:30:03.744Z,38.40
2018-09-26T17:32:32.266Z,38.00
2018-09-26T17:35:00.939Z,38.30
2018-09-26T17:37:30.992Z,39.30
2018-09-26T17:40:00.022Z,38.60
2018-09-26T17:42:28.809Z,37.70
2018-09-26T17:45:00.925Z,38.90
2018-09-26T17:47:29.720Z,40.00
2018-09-26T17:49:58.375Z,41.10
2018-09-26T17:52:26.947Z,41.40
2018-09-26T17:54:55.543Z,41.70
2018-09-26T17:57:25.296Z,42.80
2018-09-26T17:59:54.572Z,43.30
2018-09-26T18:02:23.156Z,43.20
2018-09-26T18:04:52.540Z,43.00
2018-09-26T18:07:21.526Z,43.70
2018-09-26T18:09:50.258Z,45.20
2018-09-26T18:12:19.279Z,45.10
2018-09-26T18:14:48.009Z,45.40
2018-09-26T18:17:16.707Z,45.70
2018-09-26T18:19:45.409Z,45.60
2018-09-26T18:22:13.971Z,47.70
2018-09-26T18:24:42.449Z,47.50
2018-09-26T18:27:12.998Z,48.50
2018-09-26T18:29:41.680Z,48.90
2018-09-26T18:32:10.261Z,48.70
2018-09-26T18:34:38.824Z,49.10
2018-09-26T18:37:14.157Z,49.20
2018-09-26T18:39:42.773Z,50.10
2018-09-26T18:42:11.550Z,50.70
2018-09-26T18:44:40.248Z,50.50
2018-09-26T18:47:09.218Z,50.80
2018-09-26T18:49:38.122Z,50.60
2018-09-26T18:52:07.027Z,52.40
2018-09-26T18:54:35.973Z,52.40
2018-09-26T18:57:04.669Z,52.20
2018-09-26T18:59:33.575Z,52.60
2018-09-26T19:02:02.264Z,53.00
2018-09-26T19:04:31.087Z,53.20
2018-09-26T19:07:00.210Z,53.10
2018-09-26T19:09:28.961Z,53.20
2018-09-26T19:11:57.711Z,53.40
2018-09-26T19:14:26.407Z,53.60
2018-09-26T19:16:55.118Z,54.70
2018-09-26T19:19:23.659Z,54.90
2018-09-26T19:21:52.213Z,55.20
2018-09-26T19:24:20.929Z,55.00
2018-09-26T19:26:49.742Z,55.50
2018-09-26T19:42:48.951Z,56.00
2018-09-26T19:45:18.823Z,56.40
2018-09-26T19:48:11.221Z,60.80
2018-09-26T19:50:40.259Z,60.30
2018-09-26T19:57:32.747Z,60.90
2018-09-26T20:00:14.780Z,59.40
2018-09-26T20:03:19.646Z,60.00
2018-09-26T20:06:10.746Z,60.00
2018-09-26T20:08:59.159Z,60.60
2018-09-26T20:31:19.391Z,61.90
2018-09-26T20:33:48.057Z,61.50
2018-09-26T20:36:16.706Z,61.50
2018-09-26T20:38:45.413Z,61.10
2018-09-26T20:41:14.264Z,62.30
2018-09-26T20:43:43.016Z,62.20
2018-09-26T20:46:11.965Z,63.00
2018-09-26T20:48:42.233Z,62.10
2018-09-26T20:51:12.276Z,61.70
2018-09-26T20:53:41.256Z,62.20
2018-09-26T20:56:12.554Z,62.30
2018-09-26T20:58:49.259Z,62.50
2018-09-26T21:01:22.769Z,62.30
2018-09-26T21:03:54.104Z,62.20
2018-09-26T21:06:22.805Z,62.90
2018-09-26T21:08:51.383Z,62.80
2018-09-26T21:11:20.011Z,62.50
2018-09-26T21:13:49.107Z,62.50
2018-09-26T21:16:17.654Z,63.10
2018-09-26T21:18:46.266Z,62.80
2018-09-26T21:21:14.827Z,63.50
2018-09-26T21:23:43.343Z,64.30
2018-09-26T21:26:12.084Z,65.00
2018-09-26T21:28:40.784Z,65.00
2018-09-26T21:31:09.940Z,65.10
2018-09-26T21:33:38.880Z,65.00
2018-09-26T21:36:07.160Z,65.30
2018-09-26T21:38:35.819Z,64.30
2018-09-26T21:41:04.344Z,65.00
2018-09-26T21:43:32.883Z,64.00
2018-09-26T21:46:01.572Z,64.40
2018-09-26T21:48:30.292Z,64.70
2018-09-26T21:50:58.886Z,64.10
2018-09-26T21:53:27.563Z,65.40
2018-09-26T21:55:56.298Z,64.70
2018-09-26T21:58:24.926Z,64.20
2018-09-26T22:01:00.013Z,64.50
2018-09-26T22:03:28.527Z,64.50
2018-09-26T22:05:57.171Z,64.40
2018-09-26T22:08:25.741Z,65.10
2018-09-26T22:10:54.166Z,64.80
2018-09-26T22:13:22.855Z,63.70
2018-09-26T22:15:52.019Z,65.00
2018-09-26T22:18:20.629Z,65.20
2018-09-26T22:20:49.266Z,64.60
2018-09-26T22:23:17.726Z,64.20
2018-09-26T22:25:46.275Z,64.60
2018-09-26T22:28:14.857Z,64.70
2018-09-26T22:30:43.558Z,63.90
2018-09-26T22:33:11.997Z,64.40
2018-09-26T22:35:40.627Z,64.70
2018-09-26T22:38:09.193Z,65.60
2018-09-26T22:40:37.720Z,65.30
2018-09-26T22:43:06.350Z,65.80
2018-09-26T22:45:34.792Z,65.80
2018-09-26T22:48:03.226Z,65.60
2018-09-26T22:50:31.631Z,65.00
2018-09-26T22:53:00.188Z,65.20
2018-09-26T22:55:35.340Z,66.00
2018-09-26T22:58:03.747Z,65.80
2018-09-26T23:00:32.249Z,66.20
2018-09-26T23:03:01.008Z,65.60
2018-09-26T23:05:30.084Z,65.00
2018-09-26T23:07:58.629Z,65.60
2018-09-26T23:10:27.389Z,64.90
2018-09-26T23:12:55.975Z,65.40
2018-09-26T23:15:24.966Z,66.10
2018-09-26T23:17:53.422Z,65.40
2018-09-26T23:20:22.166Z,65.30
2018-09-26T23:22:50.823Z,65.90
2018-09-26T23:25:19.191Z,65.30
2018-09-26T23:27:47.713Z,65.60
2018-09-26T23:30:16.107Z,65.80
2018-09-26T23:32:51.196Z,65.70
2018-09-26T23:35:19.668Z,65.10
2018-09-26T23:37:48.306Z,65.80
2018-09-26T23:40:16.417Z,65.30
2018-09-26T23:42:44.876Z,64.60
2018-09-26T23:45:13.292Z,66.90
2018-09-26T23:47:41.710Z,65.90
2018-09-26T23:50:10.064Z,65.90
2018-09-26T23:52:38.483Z,65.50
2018-09-26T23:55:06.969Z,65.60
2018-09-26T23:57:35.357Z,65.80
